Time;durP1;ratioP1;P1;durP2;ratioP2;P2;SDS_P1;SDS_P2;PMS_P1;PMS_P2;Temp;Humidity;BMP_temperature;BMP_pressure;BME280_temperature;BME280_humidity;BME280_pressure;Samples;Min_cycle;Max_cycle;Signal;HPM_P1;HPM_P2
2022/12/13 00:00:29;;;;;;;32.72;15.77;;;;;;;-6.52;62.11;94889.47;5015121;28;20244;-68
2022/12/13 00:02:54;;;;;;;28.98;15.15;;;;;;;-6.56;62.40;94886.22;5011868;28;20097;-67
2022/12/13 00:05:20;;;;;;;33.17;16.67;;;;;;;-6.58;62.54;94876.88;5016020;28;20114;-68
2022/12/13 00:07:45;;;;;;;30.25;16.23;;;;;;;-6.60;62.76;94879.56;5014546;28;20089;-68
2022/12/13 00:10:10;;;;;;;28.92;15.45;;;;;;;-6.65;61.53;94871.22;5016331;28;20639;-67
2022/12/13 00:12:36;;;;;;;32.60;16.08;;;;;;;-6.61;62.51;94872.72;5014164;28;20108;-68
2022/12/13 00:15:01;;;;;;;30.23;15.60;;;;;;;-6.61;62.70;94872.72;5016499;28;20085;-67
2022/12/13 00:17:27;;;;;;;29.92;15.27;;;;;;;-6.63;63.26;94870.22;5021682;28;20106;-68
2022/12/13 00:19:52;;;;;;;25.63;14.68;;;;;;;-6.63;63.23;94865.03;5017480;28;20085;-67
2022/12/13 00:22:18;;;;;;;26.40;14.98;;;;;;;-6.67;63.24;94863.53;5020502;28;20167;-68
2022/12/13 00:24:43;;;;;;;28.77;14.98;;;;;;;-6.65;63.66;94861.72;5023544;28;20381;-68
2022/12/13 00:27:09;;;;;;;23.35;13.73;;;;;;;-6.66;63.52;94864.38;5025704;28;20370;-68
2022/12/13 00:29:34;;;;;;;26.50;15.20;;;;;;;-6.64;63.30;94852.16;5017059;28;20093;-68
2022/12/13 00:32:00;;;;;;;28.10;15.32;;;;;;;-6.60;62.55;94855.44;5018023;28;20445;-68
2022/12/13 00:34:25;;;;;;;28.90;14.73;;;;;;;-6.59;63.49;94857.91;5020202;28;20465;-68
2022/12/13 00:36:52;;;;;;;25.08;14.13;;;;;;;-6.58;63.26;94850.97;5019656;28;20110;-68
2022/12/13 00:39:18;;;;;;;27.83;15.00;;;;;;;-6.57;63.12;94857.81;5016899;28;20077;-68
2022/12/13 00:41:43;;;;;;;28.65;15.02;;;;;;;-6.62;63.46;94855.50;5022927;28;20567;-67
2022/12/13 00:44:10;;;;;;;26.48;14.65;;;;;;;-6.65;63.10;94861.72;5022695;28;20131;-67
2022/12/13 00:46:36;;;;;;;26.02;14.07;;;;;;;-6.62;62.16;94850.34;5019574;28;20141;-68
2022/12/13 00:49:01;;;;;;;24.70;14.63;;;;;;;-6.62;62.14;94853.75;5028646;28;20129;-67
2022/12/13 00:51:28;;;;;;;24.85;13.80;;;;;;;-6.64;62.47;94847.84;5048017;28;20096;-68
2022/12/13 00:53:53;;;;;;;24.98;13.52;;;;;;;-6.60;62.81;94853.66;5032743;28;20474;-67
2022/12/13 00:56:22;;;;;;;25.15;13.40;;;;;;;-6.65;62.36;94859.13;5024992;28;20087;-68
2022/12/13 00:58:49;;;;;;;24.23;13.37;;;;;;;-6.69;62.59;94852.44;5024471;28;20132;-67
2022/12/13 01:01:15;;;;;;;22.40;12.80;;;;;;;-6.67;61.76;94863.53;5022989;28;20097;-68
2022/12/13 01:03:41;;;;;;;22.92;12.90;;;;;;;-6.62;61.99;94858.09;5025016;28;20147;-68
2022/12/13 01:06:10;;;;;;;25.15;13.07;;;;;;;-6.64;61.46;94858.19;5024225;28;20136;-68
2022/12/13 01:08:36;;;;;;;22.50;13.18;;;;;;;-6.62;62.30;94858.91;5023786;28;20101;-67
2022/12/13 01:11:02;;;;;;;24.83;13.40;;;;;;;-6.65;62.41;94848.75;5025756;28;20089;-67
2022/12/13 01:13:28;;;;;;;23.60;13.40;;;;;;;-6.62;62.76;94847.75;5034403;28;20120;-68
2022/12/13 01:15:53;;;;;;;23.70;12.63;;;;;;;-6.67;62.39;94842.81;5042877;28;20585;-67
2022/12/13 01:18:18;;;;;;;22.45;12.95;;;;;;;-6.70;62.93;94848.19;5038016;28;20109;-67
2022/12/13 01:21:04;;;;;;;24.05;13.15;;;;;;;-6.74;63.02;94851.88;5041043;28;20105;-67
2022/12/13 01:23:29;;;;;;;21.42;12.52;;;;;;;-6.72;62.50;94844.03;5044655;28;20164;-67
2022/12/13 01:25:55;;;;;;;25.92;13.68;;;;;;;-6.71;61.90;94846.53;5045354;28;20120;-68
2022/12/13 01:28:20;;;;;;;28.20;14.30;;;;;;;-6.72;61.74;94841.44;5049317;28;20783;-67
2022/12/13 01:30:56;;;;;;;26.92;14.05;;;;;;;-6.76;61.72;94848.56;5028472;28;20106;-68
2022/12/13 01:33:21;;;;;;;26.20;14.18;;;;;;;-6.75;62.29;94839.84;5030385;28;20585;-68
2022/12/13 01:35:47;;;;;;;27.73;14.43;;;;;;;-6.76;62.19;94853.75;5047442;28;20123;-68
2022/12/13 01:38:12;;;;;;;25.85;15.02;;;;;;;-6.74;61.36;94838.94;5044867;28;20101;-68
2022/12/13 01:40:48;;;;;;;25.83;14.23;;;;;;;-6.74;61.35;94841.53;5043944;28;20082;-68
2022/12/13 01:43:14;;;;;;;27.75;15.07;;;;;;;-6.74;61.67;94841.53;5045781;28;20073;-68
2022/12/13 01:45:39;;;;;;;27.20;14.30;;;;;;;-6.74;60.97;94841.53;5033289;28;20621;-67
2022/12/13 01:48:07;;;;;;;28.42;14.88;;;;;;;-6.69;60.77;94843.84;5016488;28;20424;-68
2022/12/13 01:50:34;;;;;;;28.65;15.18;;;;;;;-6.71;61.79;94850.84;5017050;28;20125;-68
2022/12/13 01:53:00;;;;;;;25.65;13.63;;;;;;;-6.79;61.69;94848.72;5013885;28;20118;-66
2022/12/13 01:55:27;;;;;;;25.77;13.80;;;;;;;-6.91;61.70;94839.91;5018106;28;20557;-67
2022/12/13 01:57:52;;;;;;;26.83;14.23;;;;;;;-6.85;62.80;94838.72;5002108;28;20109;-68
2022/12/13 02:00:18;;;;;;;23.25;13.48;;;;;;;-6.77;61.43;94831.34;5018268;28;20082;-67
2022/12/13 02:02:43;;;;;;;26.40;13.65;;;;;;;-6.72;61.50;94833.66;5018035;28;20101;-68
2022/12/13 02:05:23;;;;;;;25.73;14.23;;;;;;;-6.71;61.93;94838.75;5010456;28;20201;-67
2022/12/13 02:07:48;;;;;;;25.40;12.85;;;;;;;-6.81;60.69;94835.03;5017520;28;20133;-68
2022/12/13 02:10:14;;;;;;;21.10;12.25;;;;;;;-6.78;61.10;94840.03;5001541;28;20106;-67
2022/12/13 02:12:39;;;;;;;22.70;12.93;;;;;;;-6.61;62.32;94833.88;5017748;28;20547;-67
2022/12/13 02:15:10;;;;;;;21.77;12.88;;;;;;;-6.38;61.43;94835.06;5016702;28;20081;-68
2022/12/13 02:18:03;;;;;;;26.77;12.98;;;;;;;-6.24;61.27;94828.22;5014693;28;20418;-68
2022/12/13 02:20:49;;;;;;;22.08;12.68;;;;;;;-6.03;61.03;94831.25;5016639;28;20581;-68
2022/12/13 02:23:26;;;;;;;25.33;12.18;;;;;;;-6.04;62.17;94834.78;5015337;28;20100;-67
2022/12/13 02:26:09;;;;;;;24.05;12.85;;;;;;;-6.06;61.34;94838.38;5032277;28;20112;-68
2022/12/13 02:29:08;;;;;;;22.52;12.50;;;;;;;-5.73;61.73;94832.03;5043443;28;20127;-68
2022/12/13 02:31:46;;;;;;;23.00;12.40;;;;;;;-5.48;60.97;94833.91;5012870;28;20593;-68
2022/12/13 02:34:22;;;;;;;23.40;12.65;;;;;;;-5.25;60.16;94833.38;5016718;28;20451;-67
2022/12/13 02:37:00;;;;;;;22.38;12.93;;;;;;;-5.09;60.38;94834.03;5015894;28;20140;-67
2022/12/13 02:39:35;;;;;;;22.85;12.77;;;;;;;-4.90;60.66;94832.81;5017075;28;20095;-67
2022/12/13 02:42:09;;;;;;;20.80;12.52;;;;;;;-4.97;60.87;94831.56;5015946;28;20108;-67
2022/12/13 02:44:44;;;;;;;22.17;12.18;;;;;;;-4.69;61.09;94830.56;5006693;28;20091;-67
2022/12/13 02:47:14;;;;;;;22.92;12.23;;;;;;;-4.47;59.95;94830.88;4997177;28;20073;-66
2022/12/13 02:49:42;;;;;;;22.48;12.45;;;;;;;-4.40;60.72;94829.53;5013069;28;20122;-67
2022/12/13 02:52:08;;;;;;;19.95;11.55;;;;;;;-4.22;60.00;94824.84;5014471;28;20181;-66
2022/12/13 02:54:33;;;;;;;22.17;11.52;;;;;;;-4.12;59.40;94816.38;5004631;28;20176;-67
2022/12/13 02:56:59;;;;;;;24.65;13.48;;;;;;;-4.13;60.63;94822.53;5018107;28;20121;-67
2022/12/13 02:59:28;;;;;;;22.38;12.60;;;;;;;-4.23;60.29;94819.75;5014152;28;20203;-66
2022/12/13 03:02:09;;;;;;;20.92;11.15;;;;;;;-4.00;59.60;94818.16;5015438;28;20113;-67
2022/12/13 03:07:40;;;;;;;20.38;11.48;;;;;;;-3.72;60.11;94821.41;5041566;28;20096;-67
2022/12/13 03:10:11;;;;;;;18.67;9.77;;;;;;;-4.04;56.82;94827.13;5027578;28;20497;-67
2022/12/13 03:15:42;;;;;;;18.60;10.45;;;;;;;-3.90;59.61;94810.53;5041590;28;20590;-67
2022/12/13 03:18:14;;;;;;;;;;;;;;;-3.80;60.00;94811.53;5043813;28;20109;-66
2022/12/13 03:20:50;;;;;;;17.80;10.32;;;;;;;-3.60;59.23;94808.47;5042443;28;20023;-68
2022/12/13 03:23:16;;;;;;;17.48;10.00;;;;;;;-3.65;58.65;94808.78;5041192;28;20115;-67
2022/12/13 03:25:41;;;;;;;16.98;9.82;;;;;;;-3.67;59.13;94808.91;5035860;28;20101;-67
2022/12/13 03:28:07;;;;;;;16.85;9.38;;;;;;;-3.92;58.73;94813.25;5011852;28;20078;-67
2022/12/13 03:30:32;;;;;;;19.65;10.75;;;;;;;-3.75;58.21;94816.41;5029326;28;20116;-67
2022/12/13 03:32:58;;;;;;;17.92;10.68;;;;;;;-3.58;58.98;94810.00;5032220;28;20182;-67
2022/12/13 03:35:23;;;;;;;18.05;10.82;;;;;;;-3.45;58.86;94811.72;5044304;28;20630;-66
2022/12/13 03:37:49;;;;;;;20.27;10.63;;;;;;;-3.42;59.64;94806.31;5026996;28;20099;-68
2022/12/13 03:40:14;;;;;;;19.45;10.40;;;;;;;-3.55;58.87;94808.97;5021540;28;20561;-67
2022/12/13 03:42:40;;;;;;;17.27;9.75;;;;;;;-3.78;58.82;94799.25;5016157;28;20090;-67
2022/12/13 03:45:06;;;;;;;20.17;10.02;;;;;;;-3.66;58.99;94801.94;5018600;28;20470;-68
2022/12/13 03:47:31;;;;;;;18.30;9.98;;;;;;;-3.55;59.11;94804.59;5024609;28;20100;-68
2022/12/13 03:49:56;;;;;;;17.30;10.38;;;;;;;-3.57;58.85;94795.25;5021368;28;20110;-67
2022/12/13 03:52:22;;;;;;;18.02;10.32;;;;;;;-3.56;58.73;94787.31;5024063;28;20151;-67
2022/12/13 03:54:47;;;;;;;18.20;10.02;;;;;;;-3.48;58.46;94791.13;5048357;28;20085;-67
2022/12/13 03:57:14;;;;;;;16.88;9.90;;;;;;;-3.52;59.15;94793.94;5038860;28;20101;-67
2022/12/13 03:59:40;;;;;;;16.38;9.63;;;;;;;-3.57;58.66;94792.63;5027195;28;20103;-67
2022/12/13 04:02:05;;;;;;;16.85;9.35;;;;;;;-3.54;58.50;94793.25;5021817;28;20848;-66
2022/12/13 04:04:30;;;;;;;17.23;9.38;;;;;;;-3.53;58.06;94794.09;5025713;28;20082;-67
2022/12/13 04:06:56;;;;;;;16.60;9.65;;;;;;;-3.59;58.44;94786.69;5045598;28;20100;-68
2022/12/13 04:09:21;;;;;;;15.95;9.77;;;;;;;-3.66;58.06;94789.72;5047347;28;20707;-68
2022/12/13 04:14:51;;;;;;;16.42;9.25;;;;;;;-3.85;58.29;94795.44;4998540;28;20665;-68
2022/12/13 04:17:16;;;;;;;17.85;9.30;;;;;;;-3.91;58.14;94791.50;4998331;28;20106;-67
2022/12/13 04:19:42;;;;;;;16.83;9.30;;;;;;;-3.92;58.33;94799.41;5006516;28;20110;-67
2022/12/13 04:22:07;;;;;;;15.85;9.13;;;;;;;-3.96;58.61;94798.78;5035453;28;20605;-67
2022/12/13 04:24:32;;;;;;;15.55;9.25;;;;;;;-3.95;58.89;94791.81;5038124;28;20073;-67
2022/12/13 04:26:59;;;;;;;16.60;8.95;;;;;;;-3.94;58.96;94796.09;5039684;28;20085;-68
2022/12/13 04:29:24;;;;;;;16.13;9.20;;;;;;;-3.90;58.72;94794.94;5038503;28;20128;-67
2022/12/13 04:31:50;;;;;;;15.52;8.77;;;;;;;-3.91;59.02;94796.69;5038931;28;20089;-68
2022/12/13 04:34:15;;;;;;;17.17;9.30;;;;;;;-3.89;58.89;94798.34;5040038;28;20759;-67
2022/12/13 04:36:41;;;;;;;18.98;10.07;;;;;;;-3.85;58.48;94797.19;5042405;28;20139;-68
2022/12/13 04:39:06;;;;;;;16.52;9.40;;;;;;;-3.90;57.67;94789.72;5046168;28;20391;-67
2022/12/13 04:41:35;;;;;;;17.17;8.93;;;;;;;-3.91;59.25;94793.25;5033238;28;20542;-67
2022/12/13 04:44:01;;;;;;;;;;;;;;;-3.92;58.72;94784.63;5018432;28;20094;-67
2022/12/13 04:46:26;;;;;;;15.77;8.77;;;;;;;-3.98;58.84;94786.84;5019447;28;19985;-67
2022/12/13 04:48:51;;;;;;;15.85;8.80;;;;;;;-4.15;58.87;94788.84;5018921;28;20113;-67
2022/12/13 04:51:17;;;;;;;15.30;8.90;;;;;;;-4.33;58.61;94786.59;5019641;28;20125;-68
2022/12/13 04:53:42;;;;;;;14.70;7.95;;;;;;;-4.48;57.97;94787.66;5020073;28;20474;-67
2022/12/13 04:56:08;;;;;;;16.05;9.27;;;;;;;-4.73;57.96;94790.13;5018998;28;20093;-67
2022/12/13 04:58:33;;;;;;;16.63;8.80;;;;;;;-4.83;59.24;94797.72;5024673;28;20112;-67
2022/12/13 05:00:58;;;;;;;14.70;8.30;;;;;;;-4.86;58.60;94799.69;5023848;28;20101;-67
2022/12/13 05:03:24;;;;;;;15.15;8.20;;;;;;;-4.97;58.62;94798.63;5024182;28;20089;-68
2022/12/13 05:05:49;;;;;;;13.50;8.15;;;;;;;-5.24;59.15;94791.75;5023351;28;20102;-68
2022/12/13 05:08:15;;;;;;;15.32;8.30;;;;;;;-5.31;59.11;94784.47;5027161;28;20435;-67
2022/12/13 05:10:40;;;;;;;14.35;8.35;;;;;;;-5.50;59.49;94786.47;5023875;28;20113;-67
2022/12/13 05:13:05;;;;;;;16.80;8.50;;;;;;;-5.38;58.77;94789.19;5024061;28;20114;-67
2022/12/13 05:15:31;;;;;;;15.77;8.60;;;;;;;-5.43;59.08;94788.69;5025822;28;20078;-67
2022/12/13 05:18:04;;;;;;;19.33;9.20;;;;;;;-5.36;59.17;94798.53;5024868;28;20133;-67
2022/12/13 05:20:29;;;;;;;13.73;8.15;;;;;;;-5.28;59.90;94798.06;5024290;28;20165;-67
2022/12/13 05:22:57;;;;;;;14.00;8.20;;;;;;;-5.47;59.67;94795.84;5023237;28;20096;-66
2022/12/13 05:25:23;;;;;;;17.17;8.25;;;;;;;-5.18;60.15;94790.50;5024872;28;20124;-67
2022/12/13 05:27:49;;;;;;;13.95;8.00;;;;;;;-5.08;59.85;94791.56;5026090;28;20082;-67
2022/12/13 05:30:14;;;;;;;14.77;7.97;;;;;;;-5.08;59.80;94796.75;5041147;28;20170;-67
2022/12/13 05:32:40;;;;;;;15.27;8.50;;;;;;;-5.13;60.37;94787.63;5045051;28;20093;-67
2022/12/13 05:35:06;;;;;;;16.88;8.85;;;;;;;-5.25;59.56;94784.88;5045252;28;20489;-66
2022/12/13 05:37:31;;;;;;;14.90;8.50;;;;;;;-5.10;60.20;94784.78;5046183;28;20120;-67
2022/12/13 05:39:56;;;;;;;14.80;8.40;;;;;;;-4.92;60.08;94790.56;5045955;28;20093;-67
2022/12/13 05:42:22;;;;;;;15.77;8.48;;;;;;;-5.00;59.67;94788.44;5025199;28;20094;-68
2022/12/13 05:44:47;;;;;;;16.65;8.82;;;;;;;-5.24;59.12;94785.69;5018232;28;20118;-67
2022/12/13 05:47:13;;;;;;;17.42;7.80;;;;;;;-4.97;59.88;94788.25;5016659;28;20543;-67
2022/12/13 05:49:38;;;;;;;15.20;8.30;;;;;;;-4.70;60.04;94770.91;5016230;28;20167;-66
2022/12/13 05:52:03;;;;;;;15.98;8.32;;;;;;;-4.68;59.84;94767.28;5015407;28;20094;-67
2022/12/13 05:54:29;;;;;;;17.90;8.68;;;;;;;-5.13;58.90;94783.22;5014614;28;20848;-67
2022/12/13 05:56:54;;;;;;;15.30;7.88;;;;;;;-4.74;58.25;94775.50;5016068;28;20108;-67
2022/12/13 05:59:20;;;;;;;15.23;7.95;;;;;;;-4.75;60.38;94776.44;5016473;28;20078;-68
2022/12/13 06:01:45;;;;;;;15.10;8.38;;;;;;;-4.74;59.64;94780.69;5020387;28;20108;-67
2022/12/13 06:04:11;;;;;;;18.15;9.18;;;;;;;-4.79;57.74;94792.31;5018935;28;20474;-67
2022/12/13 06:06:36;;;;;;;16.00;8.38;;;;;;;-4.38;58.95;94793.84;5013791;28;20177;-67
2022/12/13 06:09:02;;;;;;;14.70;8.02;;;;;;;-4.21;59.54;94790.09;5017897;28;20113;-66
2022/12/13 06:11:28;;;;;;;14.02;7.70;;;;;;;-4.12;59.50;94783.44;5015949;28;20085;-68
2022/12/13 06:13:53;;;;;;;14.65;8.30;;;;;;;-4.02;59.73;94791.41;5015296;28;20478;-67
2022/12/13 06:16:18;;;;;;;15.27;7.80;;;;;;;-4.10;58.14;94791.97;5015023;28;20658;-67
2022/12/13 06:18:44;;;;;;;17.00;8.65;;;;;;;-4.20;58.63;94789.19;5015670;28;20106;-67
2022/12/13 06:21:09;;;;;;;14.02;7.93;;;;;;;-4.09;58.47;94779.78;5011888;28;20106;-67
2022/12/13 06:23:35;;;;;;;15.70;8.05;;;;;;;-4.10;58.53;94778.97;5016563;28;20090;-68
2022/12/13 06:26:04;;;;;;;15.60;8.63;;;;;;;-4.38;57.35;94785.25;5017038;28;20098;-67
2022/12/13 06:28:30;;;;;;;14.25;7.47;;;;;;;-4.68;55.63;94782.03;5014211;28;20136;-67
2022/12/13 06:30:58;;;;;;;16.08;8.30;;;;;;;-4.53;58.84;94779.31;5044340;28;20080;-67
2022/12/13 06:33:24;;;;;;;13.40;7.87;;;;;;;-4.52;57.75;94776.63;5030157;28;20626;-67
2022/12/13 06:35:51;;;;;;;16.58;8.18;;;;;;;-4.54;58.71;94777.66;5014383;28;20374;-68
2022/12/13 06:38:16;;;;;;;14.77;8.07;;;;;;;-4.59;58.38;94776.22;5018493;28;20105;-67
2022/12/13 06:40:42;;;;;;;15.82;8.60;;;;;;;-4.84;59.41;94784.84;5015070;28;20109;-67
2022/12/13 06:43:08;;;;;;;17.60;9.50;;;;;;;-4.88;58.63;94780.78;5023193;28;20072;-67
2022/12/13 06:45:33;;;;;;;14.98;7.30;;;;;;;-5.15;56.84;94777.31;5024039;28;20191;-67
2022/12/13 06:47:59;;;;;;;14.05;7.78;;;;;;;-5.33;58.67;94781.97;5024329;28;20089;-68
2022/12/13 06:50:24;;;;;;;15.75;8.23;;;;;;;-5.43;56.07;94784.34;5039627;28;20125;-67
2022/12/13 06:52:49;;;;;;;13.45;7.10;;;;;;;-5.12;59.39;94784.91;5043085;28;20120;-67
2022/12/13 06:55:15;;;;;;;14.43;7.95;;;;;;;-5.35;57.16;94783.81;5043067;28;20413;-68
2022/12/13 06:57:40;;;;;;;13.95;7.20;;;;;;;-5.09;59.12;94787.28;5043373;28;20148;-67
2022/12/13 07:00:06;;;;;;;18.67;7.78;;;;;;;-5.18;56.96;94780.13;5042662;28;20086;-67
2022/12/13 07:02:32;;;;;;;16.15;8.57;;;;;;;-5.31;59.07;94776.69;5041262;28;20685;-68
2022/12/13 07:04:57;;;;;;;13.77;8.20;;;;;;;-5.37;57.18;94776.13;5044111;28;20104;-67
2022/12/13 07:07:23;;;;;;;14.18;8.05;;;;;;;-5.66;57.88;94780.59;5043345;28;20402;-68
2022/12/13 07:09:49;;;;;;;14.23;7.50;;;;;;;-5.62;59.71;94779.47;5042100;28;20675;-67
2022/12/13 07:12:14;;;;;;;14.75;7.25;;;;;;;-5.38;60.19;94778.81;5041548;28;20089;-68
2022/12/13 07:14:40;;;;;;;13.70;7.13;;;;;;;-5.34;59.65;94775.94;5038044;28;20117;-67
2022/12/13 07:17:05;;;;;;;14.60;6.85;;;;;;;-5.42;58.77;94765.22;5038841;28;20234;-68
2022/12/13 07:19:30;;;;;;;11.93;7.05;;;;;;;-5.38;59.69;94771.03;5044726;28;20089;-66
2022/12/13 07:21:56;;;;;;;13.20;7.30;;;;;;;-5.39;59.70;94775.41;5030753;28;20445;-68
2022/12/13 07:24:21;;;;;;;12.93;7.10;;;;;;;-5.43;59.46;94776.53;5019728;28;20086;-68
2022/12/13 07:26:47;;;;;;;14.23;7.95;;;;;;;-5.46;59.40;94777.56;5018941;28;20456;-67
2022/12/13 07:29:12;;;;;;;13.90;7.32;;;;;;;-5.51;60.10;94774.44;5019147;28;20478;-66
2022/12/13 07:31:37;;;;;;;12.98;6.97;;;;;;;-5.51;59.63;94776.19;5018788;28;20084;-67
2022/12/13 07:34:03;;;;;;;12.50;7.25;;;;;;;-5.53;59.47;94780.66;5019395;28;20147;-68
2022/12/13 07:36:28;;;;;;;16.52;9.05;;;;;;;-5.62;59.93;94788.09;5018717;28;20645;-66
2022/12/13 07:38:55;;;;;;;14.80;8.05;;;;;;;-5.59;59.56;94782.72;5024910;28;20604;-68
2022/12/13 07:41:21;;;;;;;18.48;10.00;;;;;;;-5.62;57.04;94777.72;5018923;28;20706;-67
2022/12/13 07:43:47;;;;;;;19.00;10.75;;;;;;;-5.66;56.10;94786.63;5023842;28;20088;-67
2022/12/13 07:46:12;;;;;;;19.33;11.73;;;;;;;-5.68;59.46;94785.88;5014139;28;20118;-68
2022/12/13 07:48:38;;;;;;;20.98;13.07;;;;;;;-5.75;61.61;94794.97;5020044;28;20517;-67
2022/12/13 07:51:05;;;;;;;23.73;12.75;;;;;;;-5.60;60.84;94790.59;5017927;28;20134;-67
2022/12/13 07:53:31;;;;;;;24.70;13.77;;;;;;;-5.57;60.24;94787.81;5022816;28;20632;-68
2022/12/13 07:55:56;;;;;;;23.63;13.57;;;;;;;-5.59;59.35;94792.25;5018773;28;20094;-67
2022/12/13 07:58:22;;;;;;;22.98;14.48;;;;;;;-5.55;60.42;94792.88;5040254;28;20585;-68
2022/12/13 08:00:47;;;;;;;27.13;15.13;;;;;;;-5.68;59.43;94796.25;5045459;28;20112;-68
2022/12/13 08:03:13;;;;;;;26.50;14.90;;;;;;;-5.62;56.94;94787.25;5045943;28;20089;-68
2022/12/13 08:05:39;;;;;;;27.45;16.63;;;;;;;-5.62;61.31;94784.66;5044241;28;20155;-68
2022/12/13 08:08:05;;;;;;;32.42;18.45;;;;;;;-5.41;59.64;94779.84;5049946;28;20088;-67
2022/12/13 08:10:31;;;;;;;29.88;17.30;;;;;;;-5.50;61.02;94776.09;5043633;28;20158;-67
2022/12/13 08:12:56;;;;;;;29.45;17.92;;;;;;;-5.31;59.38;94779.28;5045179;28;20121;-67
2022/12/13 08:15:22;;;;;;;30.50;18.30;;;;;;;-5.24;59.28;94776.16;5045527;28;20593;-67
2022/12/13 08:17:48;;;;;;;29.85;18.85;;;;;;;-5.28;58.58;94776.44;5032648;28;20102;-67
2022/12/13 08:20:13;;;;;;;32.63;20.27;;;;;;;-5.19;59.17;94778.47;5015356;28;20121;-68
2022/12/13 08:22:39;;;;;;;26.73;15.60;;;;;;;-5.17;57.59;94786.16;5016224;28;20106;-67
2022/12/13 08:25:05;;;;;;;32.08;18.92;;;;;;;-5.26;59.86;94792.78;5020010;28;20105;-68
2022/12/13 08:27:31;;;;;;;31.92;20.10;;;;;;;-5.24;60.11;94791.75;5023276;28;20078;-66
2022/12/13 08:29:56;;;;;;;36.78;21.50;;;;;;;-5.15;59.46;94792.06;5018054;28;20108;-68
2022/12/13 08:32:22;;;;;;;32.20;16.98;;;;;;;-5.27;58.82;94793.72;5018888;28;20349;-67
2022/12/13 08:34:47;;;;;;;38.33;22.05;;;;;;;-5.14;61.35;94794.56;5019928;28;20110;-66
2022/12/13 08:37:13;;;;;;;35.60;22.48;;;;;;;-4.98;60.15;94801.34;5023036;28;20105;-67
2022/12/13 08:39:38;;;;;;;40.35;25.52;;;;;;;-4.79;59.51;94800.13;5015631;28;20082;-67
2022/12/13 08:42:12;;;;;;;36.03;22.38;;;;;;;-4.81;58.83;94792.41;5013003;28;20125;-67
2022/12/13 08:44:38;;;;;;;35.08;22.13;;;;;;;-4.73;59.89;94791.88;5016829;28;20068;-68
2022/12/13 08:47:03;;;;;;;43.63;25.05;;;;;;;-4.64;59.38;94790.44;5016145;28;21593;-66
2022/12/13 08:49:29;;;;;;;40.22;23.10;;;;;;;-4.67;58.91;94791.50;5008048;28;20582;-67
2022/12/13 08:51:54;;;;;;;39.78;25.48;;;;;;;-4.48;59.06;94787.66;5017275;28;20097;-67
2022/12/13 08:54:19;;;;;;;51.08;32.65;;;;;;;-4.48;60.89;94793.66;5019470;28;20102;-68
2022/12/13 08:56:45;;;;;;;48.90;29.45;;;;;;;-4.25;59.69;94783.44;5016326;28;21364;-67
2022/12/13 08:59:10;;;;;;;33.53;21.90;;;;;;;-4.16;57.96;94789.78;5019046;28;20092;-67
2022/12/13 09:01:36;;;;;;;40.80;25.95;;;;;;;-4.17;59.33;94795.94;5014635;28;20432;-67
2022/12/13 09:04:02;;;;;;;36.40;23.15;;;;;;;-4.09;59.05;94788.41;5017707;28;20087;-68
2022/12/13 09:06:27;;;;;;;40.88;24.75;;;;;;;-4.23;58.31;94789.38;5017478;28;20132;-66
2022/12/13 09:08:53;;;;;;;43.17;25.25;;;;;;;-4.01;59.22;94789.66;5018093;28;20563;-68
2022/12/13 09:11:18;;;;;;;54.45;34.85;;;;;;;-3.91;59.31;94793.25;5016170;28;20097;-68
2022/12/13 09:13:44;;;;;;;49.83;29.80;;;;;;;-3.71;59.15;94791.84;5018095;28;20350;-67
2022/12/13 09:16:14;;;;;;;42.40;26.15;;;;;;;-3.82;58.35;94797.81;5018088;28;20090;-68
2022/12/13 09:18:39;;;;;;;50.15;31.73;;;;;;;-3.86;58.34;94793.78;5010992;28;20106;-67
2022/12/13 09:21:08;;;;;;;47.75;29.48;;;;;;;-3.67;58.61;94802.88;5016353;28;20154;-68
2022/12/13 09:23:34;;;;;;;40.58;24.65;;;;;;;-3.69;57.25;94800.38;5018378;28;20080;-68
2022/12/13 09:26:00;;;;;;;54.35;35.22;;;;;;;-3.47;59.20;94803.22;5014976;28;20106;-68
2022/12/13 09:28:26;;;;;;;50.72;30.75;;;;;;;-3.56;59.58;94784.69;5016568;28;20629;-67
2022/12/13 09:30:51;;;;;;;42.20;25.40;;;;;;;-3.57;57.22;94788.25;5016315;28;20102;-66
2022/12/13 09:33:17;;;;;;;47.03;29.35;;;;;;;-3.52;59.25;94786.13;5027392;28;20801;-67
2022/12/13 09:35:42;;;;;;;43.92;28.77;;;;;;;-3.49;60.06;94795.50;5041921;28;20077;-67
2022/12/13 09:38:08;;;;;;;44.40;26.85;;;;;;;-3.25;55.27;94791.22;5041429;28;20182;-68
2022/12/13 09:40:33;;;;;;;43.70;26.23;;;;;;;-3.20;57.43;94796.91;5041413;28;20091;-67
2022/12/13 09:42:59;;;;;;;44.28;28.58;;;;;;;-3.11;58.38;94798.03;5043348;28;20079;-67
2022/12/13 09:45:24;;;;;;;38.30;24.52;;;;;;;-2.99;57.78;94791.91;5037442;28;20107;-66
2022/12/13 09:47:50;;;;;;;42.13;27.00;;;;;;;-2.89;58.43;94794.66;5034477;28;20062;-66
2022/12/13 09:50:31;;;;;;;42.13;24.73;;;;;;;-2.85;57.50;94798.69;5020037;28;20111;-66
2022/12/13 09:52:56;;;;;;;46.97;30.08;;;;;;;-2.68;57.39;94807.03;5021489;28;20525;-67
2022/12/13 09:55:43;;;;;;;45.13;26.88;;;;;;;-2.80;54.16;94799.19;5027515;28;20032;-67
2022/12/13 09:58:27;;;;;;;42.85;26.77;;;;;;;-2.69;57.47;94805.34;5031298;28;20053;-67
2022/12/13 10:00:54;;;;;;;51.05;32.80;;;;;;;-2.57;58.17;94798.41;5023138;28;20337;-67
2022/12/13 10:03:20;;;;;;;48.13;28.27;;;;;;;-2.37;56.30;94799.50;5019034;28;20048;-66
2022/12/13 10:06:00;;;;;;;61.17;39.28;;;;;;;-2.06;58.44;94802.34;5018310;28;20037;-67
2022/12/13 10:08:35;;;;;;;60.72;41.08;;;;;;;-1.88;58.15;94791.41;5022018;28;20029;-67
2022/12/13 10:11:00;;;;;;;53.13;36.63;;;;;;;-1.80;57.27;94789.00;5023814;28;20040;-67
2022/12/13 10:13:46;;;;;;;41.58;29.45;;;;;;;-1.78;56.92;94788.88;5017032;28;20037;-67
2022/12/13 10:16:19;;;;;;;57.78;34.65;;;;;;;-1.69;57.72;94784.72;5003510;28;20029;-67
2022/12/13 10:18:44;;;;;;;39.03;25.58;;;;;;;-1.72;55.30;94784.00;5013996;28;20313;-67
2022/12/13 10:21:25;;;;;;;40.90;26.95;;;;;;;-1.56;56.99;94785.38;5013150;28;20063;-67
2022/12/13 10:23:50;;;;;;;29.15;19.15;;;;;;;-1.76;53.88;94779.16;5001823;28;20143;-66
2022/12/13 10:26:16;;;;;;;55.35;37.15;;;;;;;-1.40;57.54;94784.16;5020665;28;20223;-68
2022/12/13 10:28:42;;;;;;;47.50;28.83;;;;;;;-1.39;56.29;94776.19;5013682;28;20049;-67
2022/12/13 10:31:07;;;;;;;59.30;38.75;;;;;;;-1.34;57.03;94781.06;5012603;28;20497;-68
2022/12/13 10:33:36;;;;;;;60.88;40.65;;;;;;;-1.18;56.97;94775.44;5015794;28;20043;-67
2022/12/13 10:36:05;;;;;;;;;;;;;;;-1.11;55.91;94775.75;5014834;28;20033;-68
2022/12/13 10:38:33;;;;;;;61.63;41.13;;;;;;;-1.04;57.89;94774.28;5012088;28;20475;-67
2022/12/13 10:40:58;;;;;;;56.00;35.35;;;;;;;-1.30;57.97;94766.78;5019015;28;20532;-67
2022/12/13 10:43:25;;;;;;;67.47;44.38;;;;;;;-1.04;57.70;94758.63;5013601;28;20026;-67
2022/12/13 10:45:58;;;;;;;51.75;33.13;;;;;;;-1.00;54.34;94761.78;5015565;28;20476;-67
2022/12/13 10:48:47;;;;;;;64.20;42.78;;;;;;;-0.91;57.97;94760.25;5019853;28;20029;-66
2022/12/13 10:51:14;;;;;;;73.05;49.00;;;;;;;-0.72;57.08;94747.28;5034958;28;20053;-67
2022/12/13 10:53:58;;;;;;;21.70;13.57;;;;;;;-1.00;45.02;94757.41;5011666;28;20509;-67
2022/12/13 10:56:33;;;;;;;51.95;34.47;;;;;;;-0.82;55.80;94749.84;5035220;28;20048;-68
2022/12/13 10:59:22;;;;;;;61.83;42.40;;;;;;;-1.25;56.56;94751.56;5033334;28;20218;-68
2022/12/13 11:01:47;;;;;;;63.42;39.60;;;;;;;-1.16;57.00;94754.41;5024263;28;20037;-67
2022/12/13 11:04:30;;;;;;;50.42;33.53;;;;;;;-1.13;58.17;94748.91;5016339;28;20388;-66
2022/12/13 11:06:57;;;;;;;50.10;33.67;;;;;;;-0.98;57.03;94757.28;5014562;28;20366;-66
2022/12/13 11:09:25;;;;;;;58.97;40.78;;;;;;;-0.90;56.38;94747.06;5012362;28;20513;-66
2022/12/13 11:11:51;;;;;;;69.87;46.10;;;;;;;-0.64;56.00;94749.25;5017916;28;20498;-66
2022/12/13 11:14:17;;;;;;;55.22;36.72;;;;;;;-0.75;56.31;94737.09;5014669;28;20047;-67
2022/12/13 11:16:43;;;;;;;53.45;35.30;;;;;;;-0.86;56.94;94734.53;5016556;28;20034;-67
2022/12/13 11:19:39;;;;;;;55.70;37.05;;;;;;;-0.86;55.29;94724.94;5016273;28;20487;-67
2022/12/13 11:22:06;;;;;;;51.35;34.58;;;;;;;-0.77;55.47;94714.66;4997444;28;20307;-67
2022/12/13 11:24:37;;;;;;;38.20;23.77;;;;;;;-1.26;55.08;94712.50;5010583;28;20084;-66
2022/12/13 11:27:15;;;;;;;54.75;36.35;;;;;;;-1.02;54.47;94704.44;5012556;28;20492;-67
2022/12/13 11:29:50;;;;;;;45.50;28.48;;;;;;;-0.77;55.33;94702.41;5019187;28;20454;-67
2022/12/13 11:32:41;;;;;;;55.35;35.03;;;;;;;-0.67;55.51;94705.09;5020624;28;20315;-67